createdAt,value
2023-02-07T00:02:06.766Z,24.90
2023-02-07T00:04:37.870Z,22.20
2023-02-07T00:07:09.025Z,20.60
2023-02-07T00:09:40.180Z,16.60
2023-02-07T00:12:11.281Z,25.00
2023-02-07T00:14:42.286Z,20.90
2023-02-07T00:17:13.300Z,19.20
2023-02-07T00:19:44.608Z,22.10
2023-02-07T00:22:15.915Z,19.40
2023-02-07T00:24:47.203Z,22.20
2023-02-07T00:27:18.211Z,20.10
2023-02-07T00:29:49.872Z,16.90
2023-02-07T00:32:21.138Z,18.00
2023-02-07T00:34:52.365Z,17.30
2023-02-07T00:37:23.674Z,18.10
2023-02-07T00:39:54.770Z,22.30
2023-02-07T00:42:25.860Z,30.80
2023-02-07T00:44:56.764Z,29.10
2023-02-07T00:47:27.714Z,27.00
2023-02-07T00:49:58.669Z,25.40
2023-02-07T00:52:29.739Z,23.40
2023-02-07T00:55:00.754Z,34.70
2023-02-07T00:57:31.884Z,31.50
2023-02-07T01:00:02.909Z,19.60
2023-02-07T01:02:34.752Z,22.60
2023-02-07T01:05:06.894Z,19.10
2023-02-07T01:07:38.053Z,22.50
2023-02-07T01:10:11.567Z,18.90
2023-02-07T01:12:42.848Z,19.90
2023-02-07T01:15:14.278Z,22.70
2023-02-07T01:17:45.576Z,28.90
2023-02-07T01:20:17.338Z,19.90
2023-02-07T01:22:48.295Z,19.70
2023-02-07T01:25:19.617Z,22.40
2023-02-07T01:27:50.704Z,16.20
2023-02-07T01:30:22.515Z,22.60
2023-02-07T01:32:53.449Z,23.30
2023-02-07T01:35:24.762Z,15.30
2023-02-07T01:37:55.780Z,15.90
2023-02-07T01:40:28.024Z,21.40
2023-02-07T01:43:00.620Z,18.80
2023-02-07T01:45:35.047Z,17.30
2023-02-07T01:48:12.100Z,35.10
2023-02-07T01:50:47.356Z,31.70
2023-02-07T01:53:21.462Z,30.40
2023-02-07T01:55:56.708Z,35.20
2023-02-07T01:58:29.019Z,37.00
2023-02-07T02:01:00.493Z,44.50
2023-02-07T02:03:31.816Z,20.00
2023-02-07T02:06:02.950Z,28.60
2023-02-07T02:08:33.921Z,24.90
2023-02-07T02:11:23.107Z,22.00
2023-02-07T02:14:10.005Z,17.80
2023-02-07T02:16:46.081Z,19.00
2023-02-07T02:19:44.184Z,18.80
2023-02-07T02:22:54.000Z,11.60
2023-02-07T02:25:46.248Z,15.70
2023-02-07T02:29:09.554Z,18.00
2023-02-07T02:32:03.842Z,14.40
2023-02-07T02:34:42.688Z,15.90
2023-02-07T02:37:24.382Z,15.00
2023-02-07T02:40:04.030Z,14.80
2023-02-07T02:42:41.123Z,17.50
2023-02-07T02:45:17.217Z,22.00
2023-02-07T02:47:50.929Z,12.70
2023-02-07T02:50:25.547Z,13.70
2023-02-07T02:52:56.804Z,15.20
2023-02-07T02:55:46.359Z,23.70
2023-02-07T02:58:27.831Z,16.80
2023-02-07T03:01:15.464Z,14.40
2023-02-07T03:04:21.424Z,19.50
2023-02-07T03:07:09.973Z,17.70
2023-02-07T03:09:50.077Z,17.60
2023-02-07T03:12:26.858Z,14.60
2023-02-07T03:15:07.568Z,16.40
2023-02-07T03:17:46.156Z,15.80
2023-02-07T03:20:21.930Z,15.10
2023-02-07T03:22:55.187Z,15.50
2023-02-07T03:25:28.010Z,13.30
2023-02-07T03:27:59.711Z,17.40
2023-02-07T03:30:35.033Z,13.30
2023-02-07T03:33:11.965Z,14.20
2023-02-07T03:35:50.021Z,14.50
2023-02-07T03:38:21.534Z,14.70
2023-02-07T03:40:59.610Z,15.90
2023-02-07T03:43:34.502Z,15.40
2023-02-07T03:46:05.841Z,17.60
2023-02-07T03:48:36.723Z,14.00
2023-02-07T03:51:08.632Z,18.50
2023-02-07T03:53:39.693Z,17.20
2023-02-07T03:56:10.935Z,14.00
2023-02-07T03:58:41.766Z,16.10
2023-02-07T04:01:12.838Z,12.60
2023-02-07T04:03:43.939Z,13.90
2023-02-07T04:06:15.025Z,16.50
2023-02-07T04:08:46.165Z,15.40
2023-02-07T04:11:17.678Z,10.60
2023-02-07T04:13:48.779Z,13.60
2023-02-07T04:16:20.023Z,14.70
2023-02-07T04:18:51.190Z,13.00
2023-02-07T04:21:22.379Z,18.20
2023-02-07T04:23:53.262Z,15.40
2023-02-07T04:26:24.319Z,10.40
2023-02-07T04:28:55.532Z,16.20
2023-02-07T04:31:26.761Z,14.20
2023-02-07T04:34:00.601Z,14.50
2023-02-07T04:36:31.756Z,14.50
2023-02-07T04:39:03.043Z,17.50
2023-02-07T04:41:34.633Z,17.60
2023-02-07T04:44:05.724Z,17.30
2023-02-07T04:46:36.938Z,14.80
2023-02-07T04:49:07.799Z,16.30
2023-02-07T04:51:39.218Z,18.20
2023-02-07T04:54:10.207Z,17.40
2023-02-07T04:56:41.528Z,55.00
2023-02-07T04:59:12.944Z,35.40
2023-02-07T05:01:44.084Z,19.10
2023-02-07T05:04:15.233Z,14.90
2023-02-07T05:06:46.436Z,12.20
2023-02-07T05:09:17.359Z,11.60
2023-02-07T05:11:48.346Z,10.80
2023-02-07T05:14:19.452Z,14.50
2023-02-07T05:16:50.420Z,11.70
2023-02-07T05:19:21.904Z,11.10
2023-02-07T05:21:52.802Z,12.10
2023-02-07T05:24:23.983Z,10.70
2023-02-07T05:26:55.018Z,12.70
2023-02-07T05:29:26.358Z,12.60
2023-02-07T05:32:15.155Z,11.90
2023-02-07T05:34:46.854Z,11.30
2023-02-07T05:37:17.750Z,10.50
2023-02-07T05:39:48.773Z,12.30
2023-02-07T05:42:20.187Z,10.30
2023-02-07T05:44:51.520Z,10.90
2023-02-07T05:47:22.476Z,14.30
2023-02-07T05:49:53.726Z,9.00
2023-02-07T05:52:24.940Z,9.50
2023-02-07T05:54:56.154Z,11.60
2023-02-07T05:57:27.253Z,10.80
2023-02-07T05:59:58.240Z,9.60
2023-02-07T06:02:29.185Z,10.90
2023-02-07T06:05:00.178Z,6.90
2023-02-07T06:07:31.409Z,8.30
2023-02-07T06:10:02.355Z,12.60
2023-02-07T06:12:34.004Z,12.60
2023-02-07T06:15:05.142Z,11.10
2023-02-07T06:17:36.276Z,11.20
2023-02-07T06:20:08.159Z,12.00
2023-02-07T06:22:39.275Z,9.90
2023-02-07T06:25:12.020Z,14.00
2023-02-07T06:27:43.904Z,12.20
2023-02-07T06:30:17.114Z,11.10
2023-02-07T06:32:48.289Z,10.70
2023-02-07T06:35:19.682Z,14.90
2023-02-07T06:37:50.705Z,13.40
2023-02-07T06:40:21.973Z,13.30
2023-02-07T06:42:52.853Z,15.10
2023-02-07T06:45:23.946Z,12.70
2023-02-07T06:47:54.816Z,15.00
2023-02-07T06:50:25.809Z,15.00
2023-02-07T06:53:01.934Z,14.90
2023-02-07T06:55:34.118Z,17.70
2023-02-07T06:58:05.063Z,12.30
2023-02-07T07:00:36.500Z,14.10
2023-02-07T07:03:07.848Z,15.20
2023-02-07T07:05:39.094Z,14.50
2023-02-07T07:08:10.578Z,15.60
2023-02-07T07:10:41.665Z,16.20
2023-02-07T07:13:12.648Z,13.30
2023-02-07T07:15:44.082Z,23.80
2023-02-07T07:18:15.649Z,18.60
2023-02-07T07:20:46.552Z,19.40
2023-02-07T07:23:17.568Z,21.60
2023-02-07T07:25:48.581Z,21.10
2023-02-07T07:28:19.703Z,23.60
2023-02-07T07:30:50.672Z,20.40
2023-02-07T07:33:21.799Z,22.10
2023-02-07T07:35:57.960Z,18.50
2023-02-07T07:38:29.721Z,22.30
2023-02-07T07:41:00.933Z,21.80
2023-02-07T07:43:32.048Z,24.00
2023-02-07T07:46:03.269Z,22.10
2023-02-07T07:48:34.335Z,20.10
2023-02-07T07:51:05.519Z,18.60
2023-02-07T07:53:36.650Z,25.40
2023-02-07T07:56:08.113Z,35.20
2023-02-07T07:58:39.136Z,40.90
2023-02-07T08:01:10.044Z,39.50
2023-02-07T08:03:41.554Z,35.00
2023-02-07T08:06:12.537Z,33.90
2023-02-07T08:08:43.766Z,34.00
2023-02-07T08:11:14.713Z,34.30
2023-02-07T08:13:45.580Z,38.20
2023-02-07T08:16:16.904Z,28.00
2023-02-07T08:18:48.028Z,23.50
2023-02-07T08:21:19.381Z,20.70
2023-02-07T08:23:50.609Z,18.30
2023-02-07T08:26:21.645Z,25.60
2023-02-07T08:28:53.153Z,17.30
2023-02-07T08:31:24.258Z,12.30
2023-02-07T08:33:56.326Z,11.20
2023-02-07T08:36:27.521Z,24.00
2023-02-07T08:38:59.217Z,15.80
2023-02-07T08:41:30.276Z,15.90
2023-02-07T08:44:01.583Z,15.90
2023-02-07T08:46:32.569Z,17.80
2023-02-07T08:49:03.504Z,18.00
2023-02-07T08:51:34.347Z,20.00
2023-02-07T08:54:05.586Z,16.90
2023-02-07T08:56:36.600Z,15.70
2023-02-07T08:59:07.624Z,23.60
2023-02-07T09:01:41.570Z,17.60
2023-02-07T09:04:12.814Z,20.90
2023-02-07T09:06:43.949Z,14.70
2023-02-07T09:09:15.087Z,19.30
2023-02-07T09:11:46.284Z,15.30
2023-02-07T09:14:17.260Z,12.50
2023-02-07T09:16:51.260Z,11.30
2023-02-07T09:19:22.252Z,17.40
2023-02-07T09:21:53.194Z,14.00
2023-02-07T09:24:24.469Z,13.30
2023-02-07T09:26:55.447Z,13.40
2023-02-07T09:29:29.336Z,14.20
2023-02-07T09:32:00.588Z,15.60
2023-02-07T09:34:33.248Z,13.90
2023-02-07T09:37:04.386Z,13.90
2023-02-07T09:39:41.521Z,11.90
2023-02-07T09:42:25.612Z,10.00
2023-02-07T09:45:02.800Z,6.90
2023-02-07T09:47:38.248Z,10.50
2023-02-07T09:50:16.320Z,9.90
2023-02-07T09:55:23.302Z,9.50
2023-02-07T09:57:57.919Z,8.80
2023-02-07T10:00:31.036Z,9.40
2023-02-07T10:03:10.805Z,8.90
2023-02-07T10:05:46.633Z,10.20
2023-02-07T10:08:19.571Z,11.20
2023-02-07T10:10:58.115Z,12.90
2023-02-07T10:13:45.916Z,10.10
2023-02-07T10:16:35.032Z,10.30
2023-02-07T10:19:13.499Z,12.80
2023-02-07T10:21:50.746Z,11.60
2023-02-07T10:24:49.314Z,8.90
2023-02-07T10:27:30.257Z,13.90
2023-02-07T10:30:11.024Z,11.50
2023-02-07T10:32:43.572Z,11.80
2023-02-07T10:35:22.278Z,13.90
2023-02-07T10:37:58.737Z,15.30
2023-02-07T10:40:37.408Z,19.00
2023-02-07T10:43:12.659Z,15.90
2023-02-07T10:45:45.315Z,13.00
2023-02-07T10:48:19.829Z,17.00
2023-02-07T10:50:51.047Z,14.80
2023-02-07T10:53:54.646Z,14.10
2023-02-07T10:56:27.845Z,13.90
2023-02-07T10:59:00.140Z,15.40
2023-02-07T11:01:33.075Z,10.50
2023-02-07T11:04:23.154Z,13.30
2023-02-07T11:07:05.244Z,10.10
2023-02-07T11:09:39.016Z,12.20
2023-02-07T11:12:20.928Z,10.80
2023-02-07T11:15:05.136Z,9.60
2023-02-07T11:17:37.519Z,10.00
2023-02-07T11:20:16.253Z,9.60
2023-02-07T11:22:47.386Z,7.80
2023-02-07T11:25:18.944Z,10.00
2023-02-07T11:30:23.056Z,11.80
2023-02-07T11:33:02.283Z,9.20
2023-02-07T11:35:33.744Z,8.70
2023-02-07T11:38:13.112Z,7.60
2023-02-07T11:40:50.742Z,8.20
2023-02-07T11:43:23.897Z,7.20
2023-02-07T11:46:07.149Z,7.40
2023-02-07T11:48:41.180Z,7.40
2023-02-07T11:51:18.732Z,9.90
2023-02-07T11:53:54.122Z,9.30
2023-02-07T11:56:28.024Z,12.60
2023-02-07T11:59:00.831Z,7.60
2023-02-07T12:01:34.677Z,6.00
2023-02-07T12:04:14.101Z,8.50
2023-02-07T12:06:48.420Z,6.60
2023-02-07T12:09:35.574Z,9.60
2023-02-07T12:12:12.734Z,15.30
2023-02-07T12:14:47.992Z,7.20
2023-02-07T12:17:24.517Z,8.00
2023-02-07T12:20:04.697Z,7.30
2023-02-07T12:22:44.279Z,7.30
2023-02-07T12:25:22.435Z,5.80
2023-02-07T12:28:00.269Z,5.20
2023-02-07T12:30:36.013Z,7.60
2023-02-07T12:33:15.580Z,15.20
2023-02-07T12:36:03.415Z,10.70
2023-02-07T12:38:39.088Z,8.30
2023-02-07T12:41:17.129Z,8.60
2023-02-07T12:43:54.328Z,6.70
2023-02-07T12:46:39.658Z,7.00
2023-02-07T12:49:29.375Z,6.60
2023-02-07T12:52:12.448Z,8.30
2023-02-07T12:54:56.473Z,7.90
2023-02-07T13:00:13.839Z,6.30
2023-02-07T13:02:57.397Z,6.50
2023-02-07T13:06:03.042Z,6.90
2023-02-07T13:08:45.750Z,5.40
2023-02-07T13:11:29.560Z,6.00
2023-02-07T13:16:44.983Z,5.50
2023-02-07T13:19:22.442Z,5.90
2023-02-07T13:22:00.070Z,7.70
2023-02-07T13:27:07.073Z,4.90
2023-02-07T13:29:39.059Z,5.30
2023-02-07T13:32:15.910Z,6.60
2023-02-07T13:34:54.607Z,4.70
2023-02-07T13:37:32.028Z,6.70
2023-02-07T13:40:13.788Z,6.50
2023-02-07T13:42:50.496Z,8.10
2023-02-07T13:45:28.942Z,5.00
2023-02-07T13:48:07.283Z,8.60
2023-02-07T13:50:49.201Z,6.40
2023-02-07T13:53:36.923Z,7.70
2023-02-07T13:56:33.602Z,8.10
2023-02-07T13:59:22.716Z,8.40
2023-02-07T14:01:59.581Z,8.60
2023-02-07T14:04:52.930Z,6.60
2023-02-07T14:07:29.747Z,7.00
2023-02-07T14:10:01.484Z,5.90
2023-02-07T14:12:37.049Z,7.90
2023-02-07T14:15:38.872Z,8.50
2023-02-07T14:18:48.770Z,10.10
2023-02-07T14:21:40.135Z,8.30
2023-02-07T14:24:33.386Z,6.80
2023-02-07T14:27:28.074Z,9.60
2023-02-07T14:30:14.489Z,9.30
2023-02-07T14:33:17.773Z,12.90
2023-02-07T14:36:19.793Z,11.00
2023-02-07T14:39:06.934Z,12.70
2023-02-07T14:41:41.279Z,15.40
2023-02-07T14:44:27.813Z,29.80
2023-02-07T14:47:01.319Z,36.20
2023-02-07T14:49:37.618Z,41.30
2023-02-07T14:52:12.906Z,33.80
2023-02-07T14:54:48.681Z,21.70
2023-02-07T14:57:34.281Z,26.70
2023-02-07T15:00:19.710Z,83.80
2023-02-07T15:02:56.333Z,20.90
2023-02-07T15:05:30.586Z,39.40
2023-02-07T15:08:17.510Z,25.20
2023-02-07T15:10:57.072Z,25.40
2023-02-07T15:13:31.369Z,16.10
2023-02-07T15:16:06.815Z,15.80
2023-02-07T15:18:45.847Z,22.80
2023-02-07T15:21:21.401Z,13.40
2023-02-07T15:24:04.260Z,16.10
2023-02-07T15:26:36.662Z,12.60
2023-02-07T15:29:19.645Z,14.50
2023-02-07T15:31:51.249Z,15.00
2023-02-07T15:34:25.155Z,11.00
2023-02-07T15:36:56.290Z,14.10
2023-02-07T15:39:29.367Z,13.20
2023-02-07T15:42:00.487Z,18.90
2023-02-07T15:44:34.166Z,38.90
2023-02-07T15:47:07.210Z,49.80
2023-02-07T15:49:40.920Z,27.20
2023-02-07T15:52:18.043Z,20.30
2023-02-07T15:54:52.502Z,22.50
2023-02-07T15:57:28.679Z,17.30
2023-02-07T16:00:06.609Z,14.70
2023-02-07T16:02:42.144Z,15.40
2023-02-07T16:05:22.275Z,19.90
2023-02-07T16:07:54.573Z,22.50
2023-02-07T16:10:40.309Z,18.40
2023-02-07T16:13:20.898Z,19.30
2023-02-07T16:16:01.064Z,16.60
2023-02-07T16:18:40.652Z,18.00
2023-02-07T16:21:16.966Z,16.90
2023-02-07T16:23:49.410Z,15.20
2023-02-07T16:26:28.932Z,15.70
2023-02-07T16:29:00.267Z,15.30
2023-02-07T16:31:32.519Z,18.00
2023-02-07T16:34:03.548Z,18.20
2023-02-07T16:36:34.420Z,19.80
2023-02-07T16:39:06.028Z,20.70
2023-02-07T16:41:41.501Z,16.50
2023-02-07T16:44:16.462Z,18.90
2023-02-07T16:46:48.539Z,21.00
2023-02-07T16:49:21.627Z,22.70
2023-02-07T16:51:53.538Z,29.20
2023-02-07T16:54:25.284Z,22.10
2023-02-07T16:56:59.058Z,25.80
2023-02-07T16:59:30.625Z,24.10
2023-02-07T17:02:02.100Z,27.00
2023-02-07T17:04:33.059Z,31.00
2023-02-07T17:07:04.519Z,30.30
2023-02-07T17:09:35.474Z,24.90
2023-02-07T17:12:09.078Z,30.60
2023-02-07T17:14:40.234Z,26.90
2023-02-07T17:17:12.960Z,29.70
2023-02-07T17:19:47.454Z,36.90
2023-02-07T17:22:19.275Z,40.30
2023-02-07T17:27:20.267Z,34.40
2023-02-07T17:29:51.194Z,38.80
2023-02-07T17:32:22.346Z,46.00
2023-02-07T17:34:53.585Z,50.50
2023-02-07T17:37:24.520Z,48.60
2023-02-07T17:39:55.366Z,42.90
2023-02-07T17:42:26.480Z,43.10
2023-02-07T17:44:57.476Z,43.20
2023-02-07T17:47:30.078Z,41.10
2023-02-07T17:50:03.981Z,38.30
2023-02-07T17:52:35.195Z,41.10
2023-02-07T17:55:07.890Z,34.20
2023-02-07T17:57:40.295Z,46.10
2023-02-07T18:00:18.776Z,37.90
2023-02-07T18:02:50.936Z,43.30
2023-02-07T18:05:22.928Z,38.40
2023-02-07T18:07:54.443Z,38.50
2023-02-07T18:10:28.269Z,44.60
2023-02-07T18:12:59.605Z,43.60
2023-02-07T18:15:31.567Z,43.50
2023-02-07T18:20:34.867Z,43.80
2023-02-07T18:23:05.822Z,42.90
2023-02-07T18:25:37.094Z,43.10
2023-02-07T18:28:08.490Z,71.20
2023-02-07T18:33:13.498Z,71.20
2023-02-07T18:35:45.734Z,72.70
2023-02-07T18:38:17.366Z,65.60
2023-02-07T18:40:49.894Z,66.20
2023-02-07T18:43:21.242Z,63.10
2023-02-07T18:45:52.668Z,59.50
2023-02-07T18:48:23.935Z,61.00
2023-02-07T18:50:55.067Z,59.10
2023-02-07T18:53:26.403Z,60.20
2023-02-07T18:56:03.084Z,56.10
2023-02-07T18:58:35.602Z,57.70
2023-02-07T19:01:10.146Z,59.40
2023-02-07T19:03:41.966Z,52.60
2023-02-07T19:06:13.272Z,57.10
2023-02-07T19:08:44.666Z,65.30
2023-02-07T19:11:16.030Z,55.20
2023-02-07T19:13:47.157Z,56.20
2023-02-07T19:16:20.961Z,52.90
2023-02-07T19:18:52.461Z,46.60
2023-02-07T19:21:27.207Z,50.20
2023-02-07T19:23:59.725Z,55.00
2023-02-07T19:26:31.118Z,45.60
2023-02-07T19:29:05.235Z,56.10
2023-02-07T19:31:37.667Z,51.30
2023-02-07T19:34:09.071Z,44.80
2023-02-07T19:36:40.975Z,44.10
2023-02-07T19:39:12.643Z,51.80
2023-02-07T19:44:14.210Z,54.20
2023-02-07T19:46:45.778Z,71.80
2023-02-07T19:49:17.815Z,81.10
2023-02-07T19:51:50.551Z,70.80
2023-02-07T19:54:21.593Z,74.80
2023-02-07T19:56:53.580Z,81.50
2023-02-07T19:59:25.034Z,70.40
2023-02-07T20:01:56.598Z,55.20
2023-02-07T20:04:27.692Z,54.00
2023-02-07T20:07:00.234Z,54.20
2023-02-07T20:09:31.892Z,53.50
2023-02-07T20:12:02.977Z,54.90
2023-02-07T20:14:33.979Z,53.90
2023-02-07T20:17:05.035Z,46.30
2023-02-07T20:19:36.717Z,49.80
2023-02-07T20:22:08.021Z,31.80
2023-02-07T20:24:39.095Z,36.90
2023-02-07T20:27:10.127Z,51.10
2023-02-07T20:29:41.368Z,36.80
2023-02-07T20:32:14.960Z,43.00
2023-02-07T20:34:45.958Z,42.70
2023-02-07T20:37:17.065Z,38.90
2023-02-07T20:39:48.149Z,41.30
2023-02-07T20:42:19.663Z,43.50
2023-02-07T20:44:50.599Z,44.60
2023-02-07T20:47:21.658Z,50.50
2023-02-07T20:49:52.852Z,41.10
2023-02-07T20:52:24.014Z,49.40
2023-02-07T20:54:55.401Z,46.60
2023-02-07T20:57:26.598Z,40.90
2023-02-07T20:59:57.769Z,37.50
2023-02-07T21:02:29.040Z,55.00
2023-02-07T21:07:30.293Z,44.30
2023-02-07T21:10:01.511Z,45.00
2023-02-07T21:12:33.591Z,40.60
2023-02-07T21:15:04.818Z,51.20
2023-02-07T21:17:37.001Z,70.10
2023-02-07T21:20:10.369Z,45.40
2023-02-07T21:22:41.599Z,56.20
2023-02-07T21:25:12.971Z,72.40
2023-02-07T21:27:44.423Z,104.70
2023-02-07T21:30:16.404Z,97.20
2023-02-07T21:35:17.861Z,73.30
2023-02-07T21:37:50.022Z,63.10
2023-02-07T21:40:21.347Z,62.60
2023-02-07T21:42:52.563Z,73.70
2023-02-07T21:45:23.836Z,73.00
2023-02-07T21:47:55.376Z,63.00
2023-02-07T21:50:26.445Z,50.00
2023-02-07T21:52:57.424Z,53.10
2023-02-07T21:55:28.649Z,58.40
2023-02-07T21:58:00.003Z,45.30
2023-02-07T22:00:31.043Z,46.90
2023-02-07T22:03:02.371Z,44.80
2023-02-07T22:05:33.846Z,36.60
2023-02-07T22:08:04.855Z,38.50
2023-02-07T22:10:37.267Z,42.50
2023-02-07T22:13:08.291Z,46.20
2023-02-07T22:15:39.484Z,46.90
2023-02-07T22:18:10.630Z,50.00
2023-02-07T22:20:42.108Z,52.50
2023-02-07T22:23:13.504Z,47.80
2023-02-07T22:25:44.969Z,46.50
2023-02-07T22:28:16.111Z,45.00
2023-02-07T22:30:48.653Z,38.60
2023-02-07T22:33:20.648Z,34.10
2023-02-07T22:35:52.079Z,30.70
2023-02-07T22:38:22.992Z,29.50
2023-02-07T22:40:54.010Z,32.30
2023-02-07T22:43:24.960Z,32.20
2023-02-07T22:45:56.256Z,31.80
2023-02-07T22:48:27.289Z,29.80
2023-02-07T22:50:58.242Z,30.60
2023-02-07T22:53:29.302Z,44.90
2023-02-07T22:56:04.705Z,59.70
2023-02-07T22:58:35.864Z,61.30
2023-02-07T23:01:08.207Z,53.60
2023-02-07T23:03:39.271Z,53.30
2023-02-07T23:06:11.014Z,50.50
2023-02-07T23:08:42.277Z,42.10
2023-02-07T23:11:15.365Z,38.90
2023-02-07T23:13:47.121Z,34.70
2023-02-07T23:16:20.835Z,63.10
2023-02-07T23:18:53.971Z,56.80
2023-02-07T23:21:27.376Z,51.50
2023-02-07T23:23:58.976Z,49.40
2023-02-07T23:26:30.625Z,43.50
2023-02-07T23:29:01.772Z,41.80
2023-02-07T23:31:33.010Z,34.80
2023-02-07T23:34:04.520Z,42.20
2023-02-07T23:36:35.673Z,40.20
2023-02-07T23:39:07.681Z,38.50
2023-02-07T23:41:39.848Z,34.30
2023-02-07T23:44:11.326Z,29.30
2023-02-07T23:46:42.848Z,42.90
2023-02-07T23:49:13.790Z,38.20
2023-02-07T23:51:45.716Z,27.20
2023-02-07T23:56:46.942Z,24.30
2023-02-07T23:59:18.061Z,34.70
